createdAt,value
2018-05-01T00:00:09.098Z,100044.52
2018-05-01T00:02:37.305Z,100041.97
2018-05-01T00:05:05.994Z,100039.69
2018-05-01T00:07:34.187Z,100054.13
2018-05-01T00:10:02.392Z,100049.45
2018-05-01T00:12:31.046Z,100053.34
2018-05-01T00:14:59.284Z,100049.16
2018-05-01T00:17:27.481Z,100057.02
2018-05-01T00:19:56.174Z,100055.76
2018-05-01T00:22:24.394Z,100049.88
2018-05-01T00:24:52.550Z,100051.19
2018-05-01T00:27:21.184Z,100061.64
2018-05-01T00:29:49.452Z,100062.38
2018-05-01T00:32:17.686Z,100080.06
2018-05-01T00:34:46.361Z,100067.75
2018-05-01T00:37:14.636Z,100061.00
2018-05-01T00:39:42.844Z,100063.56
2018-05-01T00:42:11.884Z,100072.67
2018-05-01T00:44:40.520Z,100068.45
2018-05-01T00:47:08.702Z,100069.91
2018-05-01T00:49:36.899Z,100080.84
2018-05-01T00:52:05.656Z,100083.23
2018-05-01T00:54:33.897Z,100088.72
2018-05-01T00:57:02.131Z,100079.69
2018-05-01T00:59:30.696Z,100088.23
2018-05-01T01:01:59.795Z,100093.80
2018-05-01T01:04:28.255Z,100087.36
2018-05-01T01:06:56.877Z,100089.69
2018-05-01T01:09:25.149Z,100102.37
2018-05-01T01:11:53.395Z,100099.38
2018-05-01T01:14:21.980Z,100101.94
2018-05-01T01:16:50.184Z,100114.71
2018-05-01T01:19:18.480Z,100115.34
2018-05-01T01:21:47.116Z,100107.67
2018-05-01T01:24:15.329Z,100117.20
2018-05-01T01:26:43.560Z,100110.84
2018-05-01T01:29:12.241Z,100113.42
2018-05-01T01:31:40.435Z,100125.44
2018-05-01T01:34:08.764Z,100122.30
2018-05-01T01:36:36.739Z,100129.34
2018-05-01T01:39:04.472Z,100127.03
2018-05-01T01:41:32.579Z,100130.08
2018-05-01T01:44:00.280Z,100141.95
2018-05-01T01:46:28.235Z,100141.22
2018-05-01T01:48:55.923Z,100137.89
2018-05-01T01:51:23.591Z,100150.95
2018-05-01T01:53:51.828Z,100149.19
2018-05-01T01:56:19.478Z,100158.80
2018-05-01T01:58:47.707Z,100157.86
2018-05-01T02:01:15.376Z,100152.89
2018-05-01T02:03:43.658Z,100161.60
2018-05-01T02:06:11.339Z,100164.05
2018-05-01T02:08:39.386Z,100177.52
2018-05-01T02:11:07.976Z,100174.22
2018-05-01T02:13:35.761Z,100181.47
2018-05-01T02:16:03.874Z,100176.36
2018-05-01T02:18:31.595Z,100175.91
2018-05-01T02:20:59.266Z,100185.40
2018-05-01T02:23:27.377Z,100185.78
2018-05-01T02:25:55.027Z,100190.27
2018-05-01T02:28:23.281Z,100200.20
2018-05-01T02:30:51.027Z,100191.02
2018-05-01T02:33:19.109Z,100196.64
2018-05-01T02:35:46.786Z,100204.88
2018-05-01T02:38:14.438Z,100208.00
2018-05-01T02:40:42.494Z,100212.43
2018-05-01T02:43:10.169Z,100206.74
2018-05-01T02:45:38.526Z,100217.97
2018-05-01T02:48:06.197Z,100215.23
2018-05-01T02:50:34.294Z,100217.67
2018-05-01T02:53:01.970Z,100226.59
2018-05-01T02:55:29.630Z,100225.22
2018-05-01T02:57:57.774Z,100225.97
2018-05-01T03:00:25.479Z,100229.58
2018-05-01T03:02:53.611Z,100235.72
2018-05-01T03:05:21.275Z,100228.16
2018-05-01T03:07:49.391Z,100232.02
2018-05-01T03:10:17.098Z,100233.58
2018-05-01T03:12:44.768Z,100235.78
2018-05-01T03:15:13.081Z,100233.39
2018-05-01T03:17:40.751Z,100240.44
2018-05-01T03:20:09.065Z,100231.65
2018-05-01T03:22:36.778Z,100234.02
2018-05-01T03:25:04.840Z,100236.51
2018-05-01T03:27:32.553Z,100244.88
2018-05-01T03:30:00.194Z,100248.67
2018-05-01T03:32:28.369Z,100244.83
2018-05-01T03:34:56.037Z,100252.56
2018-05-01T03:37:24.096Z,100256.17
2018-05-01T03:39:51.779Z,100254.32
2018-05-01T03:42:19.922Z,100262.88
2018-05-01T03:44:47.639Z,100261.67
2018-05-01T03:47:15.330Z,100258.50
2018-05-01T03:49:43.574Z,100265.54
2018-05-01T03:52:11.244Z,100266.98
2018-05-01T03:54:39.462Z,100273.12
2018-05-01T03:57:07.131Z,100270.62
2018-05-01T03:59:35.423Z,100281.11
2018-05-01T04:02:03.693Z,100281.71
2018-05-01T04:04:31.353Z,100288.91
2018-05-01T04:06:59.677Z,100297.03
2018-05-01T04:09:27.367Z,100300.89
2018-05-01T04:11:55.376Z,100306.58
2018-05-01T04:14:23.064Z,100309.65
2018-05-01T04:16:50.740Z,100309.65
2018-05-01T04:19:19.029Z,100315.19
2018-05-01T04:21:46.841Z,100313.75
2018-05-01T04:24:14.938Z,100314.95
2018-05-01T04:26:42.637Z,100318.12
2018-05-01T04:29:10.740Z,100316.19
2018-05-01T04:34:12.193Z,100328.38
2018-05-01T04:36:40.042Z,100337.86
2018-05-01T04:39:07.740Z,100342.73
2018-05-01T04:41:35.864Z,100342.63
2018-05-01T04:44:03.606Z,100354.67
2018-05-01T04:46:31.261Z,100358.66
2018-05-01T04:48:59.366Z,100362.92
2018-05-01T04:51:27.063Z,100368.36
2018-05-01T04:53:55.172Z,100368.30
2018-05-01T04:56:39.231Z,100382.11
2018-05-01T04:59:10.815Z,100383.49
2018-05-01T05:01:53.952Z,100382.11
2018-05-01T05:04:28.449Z,100394.22
2018-05-01T05:06:56.107Z,100392.75
2018-05-01T05:09:23.829Z,100398.78
2018-05-01T05:11:51.502Z,100401.29
2018-05-01T05:14:19.641Z,100406.17
2018-05-01T05:16:47.307Z,100407.23
2018-05-01T05:19:15.486Z,100416.63
2018-05-01T05:21:43.161Z,100425.75
2018-05-01T05:24:11.346Z,100425.67
2018-05-01T05:26:39.000Z,100430.36
2018-05-01T05:29:06.641Z,100432.17
2018-05-01T05:31:34.877Z,100439.02
2018-05-01T05:34:02.528Z,100440.37
2018-05-01T05:36:30.768Z,100451.43
2018-05-01T05:38:58.467Z,100461.88
2018-05-01T05:41:26.603Z,100470.91
2018-05-01T05:43:54.294Z,100454.00
2018-05-01T05:46:21.966Z,100467.91
2018-05-01T05:48:50.186Z,100464.23
2018-05-01T05:51:17.850Z,100469.86
2018-05-01T05:53:45.956Z,100475.97
2018-05-01T05:56:13.627Z,100473.48
2018-05-01T05:58:41.839Z,100483.22
2018-05-01T06:01:09.581Z,100505.25
2018-05-01T06:03:37.303Z,100498.42
2018-05-01T06:06:05.303Z,100493.80
2018-05-01T06:08:32.982Z,100493.80
2018-05-01T06:11:01.211Z,100498.86
2018-05-01T06:13:29.008Z,100510.50
2018-05-01T06:15:57.068Z,100502.55
2018-05-01T06:18:26.176Z,100517.56
2018-05-01T06:20:53.834Z,100518.82
2018-05-01T06:23:21.521Z,100522.88
2018-05-01T06:25:49.195Z,100524.98
2018-05-01T06:28:17.154Z,100537.88
2018-05-01T06:30:44.875Z,100535.39
2018-05-01T06:33:12.551Z,100532.20
2018-05-01T06:35:40.855Z,100545.41
2018-05-01T06:38:08.550Z,100545.83
2018-05-01T06:40:36.636Z,100543.64
2018-05-01T06:43:04.311Z,100551.02
2018-05-01T06:45:32.535Z,100549.41
2018-05-01T06:48:01.582Z,100560.89
2018-05-01T06:50:29.234Z,100551.70
2018-05-01T06:52:56.952Z,100563.55
2018-05-01T06:55:24.620Z,100560.46
2018-05-01T06:57:52.709Z,100571.22
2018-05-01T07:00:20.411Z,100568.64
2018-05-01T07:02:48.076Z,100580.73
2018-05-01T07:05:16.252Z,100574.58
2018-05-01T07:07:43.912Z,100574.06
2018-05-01T07:10:12.508Z,100577.78
2018-05-01T07:12:40.145Z,100585.12
2018-05-01T07:15:07.897Z,100602.94
2018-05-01T07:17:35.580Z,100608.48
2018-05-01T07:20:03.264Z,100610.52
2018-05-01T07:22:31.377Z,100604.03
2018-05-01T07:24:59.045Z,100612.25
2018-05-01T07:27:27.355Z,100614.59
2018-05-01T07:29:55.094Z,100625.80
2018-05-01T07:32:23.255Z,100620.81
2018-05-01T07:34:50.996Z,100629.27
2018-05-01T07:37:18.663Z,100633.20
2018-05-01T07:39:46.668Z,100630.36
2018-05-01T07:42:14.363Z,100624.68
2018-05-01T07:44:42.597Z,100630.61
2018-05-01T07:47:10.271Z,100614.39
2018-05-01T07:49:38.461Z,100625.64
2018-05-01T07:52:06.186Z,100633.24
2018-05-01T07:54:33.849Z,100624.71
2018-05-01T07:57:01.970Z,100636.36
2018-05-01T07:59:29.647Z,100630.29
2018-05-01T08:01:58.670Z,100627.22
2018-05-01T08:04:27.069Z,100632.95
2018-05-01T08:06:54.904Z,100631.08
2018-05-01T08:09:23.051Z,100635.03
2018-05-01T08:11:51.123Z,100645.34
2018-05-01T08:14:19.239Z,100646.49
2018-05-01T08:17:08.229Z,100647.52
2018-05-01T08:19:38.397Z,100643.92
2018-05-01T08:22:10.887Z,100652.51
2018-05-01T08:24:43.960Z,100663.91
2018-05-01T08:27:12.858Z,100651.19
2018-05-01T08:29:40.986Z,100649.09
2018-05-01T08:32:09.768Z,100654.16
2018-05-01T08:34:38.759Z,100654.63
2018-05-01T08:37:06.643Z,100666.50
2018-05-01T08:39:35.159Z,100677.94
2018-05-01T08:42:03.541Z,100667.52
2018-05-01T08:44:33.448Z,100664.09
2018-05-01T08:47:01.938Z,100672.20
2018-05-01T08:49:29.849Z,100675.84
2018-05-01T08:51:57.592Z,100704.70
2018-05-01T08:54:25.259Z,100689.02
2018-05-01T08:56:53.320Z,100690.70
2018-05-01T08:59:20.986Z,100691.98
2018-05-01T09:01:49.201Z,100694.95
2018-05-01T09:04:16.982Z,100692.56
2018-05-01T09:06:45.021Z,100695.38
2018-05-01T09:09:12.739Z,100706.94
2018-05-01T09:11:40.452Z,100698.03
2018-05-01T09:14:09.610Z,100697.87
2018-05-01T09:16:37.297Z,100700.27
2018-05-01T09:19:05.218Z,100701.53
2018-05-01T09:21:32.912Z,100695.25
2018-05-01T09:24:01.247Z,100704.37
2018-05-01T09:26:29.559Z,100707.41
2018-05-01T09:28:57.256Z,100722.09
2018-05-01T09:31:25.371Z,100715.33
2018-05-01T09:33:53.062Z,100714.62
2018-05-01T09:36:20.868Z,100731.22
2018-05-01T09:38:49.209Z,100725.52
2018-05-01T09:41:16.987Z,100726.72
2018-05-01T09:43:45.192Z,100735.05
2018-05-01T09:46:14.046Z,100740.91
2018-05-01T09:48:41.716Z,100741.23
2018-05-01T09:51:10.004Z,100741.34
2018-05-01T09:53:38.202Z,100747.84
2018-05-01T09:56:06.420Z,100743.80
2018-05-01T09:58:35.265Z,100746.03
2018-05-01T10:01:04.073Z,100739.27
2018-05-01T10:03:33.653Z,100745.20
2018-05-01T10:09:43.283Z,100753.28
2018-05-01T10:16:00.154Z,100750.00
2018-05-01T10:18:38.071Z,100744.67
2018-05-01T10:21:17.872Z,100750.44
2018-05-01T10:24:03.603Z,100750.29
2018-05-01T10:26:52.549Z,100750.34
2018-05-01T10:29:29.860Z,100748.52
2018-05-01T10:32:05.240Z,100762.45
2018-05-01T10:34:34.697Z,100758.22
2018-05-01T10:37:03.641Z,100755.23
2018-05-01T10:39:32.367Z,100766.90
2018-05-01T10:42:00.657Z,100768.63
2018-05-01T10:44:28.873Z,100773.09
2018-05-01T10:46:57.342Z,100763.53
2018-05-01T10:49:25.609Z,100773.44
2018-05-01T10:51:53.826Z,100784.52
2018-05-01T10:54:22.462Z,100769.95
2018-05-01T10:56:50.763Z,100772.91
2018-05-01T10:59:18.973Z,100781.47
2018-05-01T11:01:47.569Z,100774.06
2018-05-01T11:04:15.811Z,100777.49
2018-05-01T11:06:44.014Z,100785.56
2018-05-01T11:09:12.782Z,100796.41
2018-05-01T11:11:40.994Z,100789.56
2018-05-01T11:14:09.173Z,100796.09
2018-05-01T11:16:38.004Z,100787.72
2018-05-01T11:19:06.786Z,100797.83
2018-05-01T11:21:35.005Z,100792.98
2018-05-01T11:24:03.242Z,100793.45
2018-05-01T11:26:31.902Z,100815.53
2018-05-01T11:29:00.111Z,100798.30
2018-05-01T11:31:28.436Z,100795.19
2018-05-01T11:33:57.102Z,100799.06
2018-05-01T11:36:25.285Z,100805.91
2018-05-01T11:38:53.552Z,100805.89
2018-05-01T11:41:22.318Z,100813.09
2018-05-01T11:43:50.573Z,100808.73
2018-05-01T11:46:18.804Z,100809.17
2018-05-01T11:48:47.434Z,100810.63
2018-05-01T11:51:15.644Z,100826.97
2018-05-01T11:53:44.982Z,100815.16
2018-05-01T11:56:13.614Z,100813.09
2018-05-01T11:58:41.840Z,100811.88
2018-05-01T12:01:10.054Z,100804.89
2018-05-01T12:03:38.590Z,100798.60
2018-05-01T12:06:06.807Z,100805.13
2018-05-01T12:08:34.986Z,100801.88
2018-05-01T12:11:03.673Z,100806.58
2018-05-01T12:13:31.892Z,100813.45
2018-05-01T12:16:00.107Z,100816.02
2018-05-01T12:18:29.008Z,100815.59
2018-05-01T12:20:57.278Z,100822.89
2018-05-01T12:23:25.485Z,100821.14
2018-05-01T12:25:53.902Z,100823.87
2018-05-01T12:28:22.131Z,100819.38
2018-05-01T12:30:50.350Z,100819.52
2018-05-01T12:33:19.139Z,100815.17
2018-05-01T12:35:47.453Z,100828.70
2018-05-01T12:38:15.650Z,100825.00
2018-05-01T12:40:44.274Z,100824.30
2018-05-01T12:43:12.541Z,100829.96
2018-05-01T12:45:40.744Z,100838.85
2018-05-01T12:48:09.456Z,100843.78
2018-05-01T12:50:37.717Z,100832.70
2018-05-01T12:53:05.937Z,100842.23
2018-05-01T12:55:34.464Z,100829.78
2018-05-01T12:58:02.679Z,100836.25
2018-05-01T13:00:30.911Z,100836.92
2018-05-01T13:02:59.571Z,100839.44
2018-05-01T13:05:27.829Z,100839.88
2018-05-01T13:07:56.059Z,100840.05
2018-05-01T13:10:24.712Z,100853.98
2018-05-01T13:12:53.005Z,100850.33
2018-05-01T13:15:21.223Z,100846.61
2018-05-01T13:17:49.795Z,100848.95
2018-05-01T13:20:17.983Z,100838.16
2018-05-01T13:22:46.202Z,100852.06
2018-05-01T13:25:14.883Z,100849.59
2018-05-01T13:27:43.086Z,100843.23
2018-05-01T13:30:11.307Z,100844.63
2018-05-01T13:32:39.831Z,100855.19
2018-05-01T13:38:07.965Z,100853.75
2018-05-01T13:40:36.803Z,100861.42
2018-05-01T13:43:05.534Z,100859.66
2018-05-01T13:45:33.725Z,100859.51
2018-05-01T13:48:03.246Z,100864.61
2018-05-01T13:50:31.583Z,100850.28
2018-05-01T13:52:59.810Z,100856.09
2018-05-01T13:55:28.831Z,100860.70
2018-05-01T13:57:57.461Z,100863.23
2018-05-01T14:00:25.739Z,100862.58
2018-05-01T14:02:54.447Z,100863.14
2018-05-01T14:05:23.409Z,100856.22
2018-05-01T14:07:52.306Z,100871.22
2018-05-01T14:10:20.534Z,100876.92
2018-05-01T14:12:49.333Z,100868.02
2018-05-01T14:15:18.182Z,100862.75
2018-05-01T14:17:47.117Z,100869.22
2018-05-01T14:20:15.411Z,100858.73
2018-05-01T14:22:44.297Z,100859.09
2018-05-01T14:25:13.347Z,100862.19
2018-05-01T14:27:42.065Z,100867.41
2018-05-01T14:30:10.293Z,100867.20
2018-05-01T14:32:39.080Z,100859.61
2018-05-01T14:35:07.889Z,100876.23
2018-05-01T14:37:36.855Z,100868.13
2018-05-01T14:40:05.153Z,100867.17
2018-05-01T14:42:33.869Z,100875.05
2018-05-01T14:45:02.852Z,100870.80
2018-05-01T14:47:31.717Z,100873.07
2018-05-01T14:52:34.383Z,100867.70
2018-05-01T14:55:03.040Z,100882.91
2018-05-01T14:57:31.625Z,100873.92
2018-05-01T14:59:59.843Z,100880.11
2018-05-01T15:02:28.775Z,100872.45
2018-05-01T15:04:57.515Z,100875.26
2018-05-01T15:07:26.556Z,100875.06
2018-05-01T15:09:54.806Z,100876.32
2018-05-01T15:12:23.659Z,100879.14
2018-05-01T15:14:52.547Z,100885.38
2018-05-01T15:17:21.487Z,100869.89
2018-05-01T15:19:49.706Z,100869.75
2018-05-01T15:22:18.887Z,100860.82
2018-05-01T15:24:47.746Z,100870.14
2018-05-01T15:27:16.392Z,100868.88
2018-05-01T15:29:44.610Z,100869.81
2018-05-01T15:32:13.473Z,100870.03
2018-05-01T15:34:42.014Z,100878.45
2018-05-01T15:37:10.298Z,100878.67
2018-05-01T15:39:38.512Z,100864.79
2018-05-01T15:42:07.103Z,100866.43
2018-05-01T15:44:35.373Z,100863.06
2018-05-01T15:47:03.566Z,100860.80
2018-05-01T15:49:32.614Z,100867.87
2018-05-01T15:52:01.563Z,100859.82
2018-05-01T15:54:29.757Z,100854.86
2018-05-01T15:56:58.581Z,100857.41
2018-05-01T15:59:27.141Z,100849.57
2018-05-01T16:01:55.426Z,100859.11
2018-05-01T16:04:23.811Z,100858.70
2018-05-01T16:06:52.813Z,100867.56
2018-05-01T16:09:21.741Z,100865.47
2018-05-01T16:11:51.047Z,100865.52
2018-05-01T16:14:19.917Z,100869.27
2018-05-01T16:16:48.984Z,100872.56
2018-05-01T16:19:18.077Z,100866.34
2018-05-01T16:21:46.594Z,100865.44
2018-05-01T16:29:58.295Z,100867.30
2018-05-01T16:32:42.319Z,100872.09
2018-05-01T16:35:25.625Z,100862.92
2018-05-01T16:38:22.771Z,100859.34
2018-05-01T16:41:00.121Z,100865.96
2018-05-01T16:44:07.533Z,100864.67
2018-05-01T16:46:45.843Z,100870.78
2018-05-01T16:54:47.382Z,100871.61
2018-05-01T16:57:19.157Z,100866.03
2018-05-01T16:59:49.490Z,100867.48
2018-05-01T17:02:19.526Z,100869.66
2018-05-01T17:04:50.354Z,100869.12
2018-05-01T17:07:18.749Z,100872.14
2018-05-01T17:09:48.570Z,100868.83
2018-05-01T17:12:17.355Z,100873.45
2018-05-01T17:14:45.924Z,100873.20
2018-05-01T17:17:14.112Z,100871.96
2018-05-01T17:19:43.348Z,100876.27
2018-05-01T17:22:12.267Z,100882.39
2018-05-01T17:24:41.015Z,100883.29
2018-05-01T17:27:09.267Z,100879.30
2018-05-01T17:29:38.131Z,100875.88
2018-05-01T17:32:06.894Z,100873.78
2018-05-01T17:34:35.927Z,100876.38
2018-05-01T17:37:04.207Z,100879.31
2018-05-01T17:39:32.979Z,100881.16
2018-05-01T17:42:01.951Z,100877.46
2018-05-01T17:44:30.866Z,100883.11
2018-05-01T17:46:59.119Z,100881.53
2018-05-01T17:49:28.848Z,100884.34
2018-05-01T17:51:57.125Z,100886.19
2018-05-01T17:54:25.951Z,100886.12
2018-05-01T17:56:54.202Z,100894.70
2018-05-01T17:59:22.819Z,100891.63
2018-05-01T18:01:51.880Z,100891.56
2018-05-01T18:04:20.792Z,100891.83
2018-05-01T18:06:48.991Z,100893.59
2018-05-01T18:09:17.888Z,100895.19
2018-05-01T18:11:46.724Z,100898.30
2018-05-01T18:14:15.630Z,100899.28
2018-05-01T18:16:43.856Z,100906.23
2018-05-01T18:19:12.768Z,100905.27
2018-05-01T18:21:41.551Z,100910.84
2018-05-01T18:24:10.726Z,100912.43
2018-05-01T18:26:39.034Z,100907.33
2018-05-01T18:29:07.712Z,100910.14
2018-05-01T18:31:36.597Z,100910.23
2018-05-01T18:34:05.640Z,100908.37
2018-05-01T18:36:34.056Z,100909.30
2018-05-01T18:39:02.752Z,100918.03
2018-05-01T18:41:31.670Z,100916.54
2018-05-01T18:43:59.936Z,100916.05
2018-05-01T18:46:28.212Z,100916.95
2018-05-01T18:48:57.199Z,100913.43
2018-05-01T18:51:26.225Z,100910.52
2018-05-01T18:53:54.590Z,100909.88
2018-05-01T18:56:24.222Z,100911.27
2018-05-01T18:58:54.630Z,100913.84
2018-05-01T19:01:23.331Z,100917.47
2018-05-01T19:03:54.791Z,100914.67
2018-05-01T19:06:24.529Z,100910.92
2018-05-01T19:08:53.198Z,100914.49
2018-05-01T19:11:21.884Z,100914.20
2018-05-01T19:13:50.962Z,100915.41
2018-05-01T19:16:20.437Z,100917.88
2018-05-01T19:18:49.312Z,100921.58
2018-05-01T19:21:18.029Z,100920.80
2018-05-01T19:23:46.286Z,100929.70
2018-05-01T19:26:15.286Z,100927.97
2018-05-01T19:28:43.969Z,100936.34
2018-05-01T19:31:12.216Z,100937.41
2018-05-01T19:33:41.017Z,100936.59
2018-05-01T19:36:10.027Z,100937.19
2018-05-01T19:38:38.845Z,100946.20
2018-05-01T19:41:07.143Z,100941.66
2018-05-01T19:43:36.240Z,100940.23
2018-05-01T19:46:05.556Z,100946.31
2018-05-01T19:48:35.228Z,100942.75
2018-05-01T19:51:04.653Z,100946.25
2018-05-01T19:53:33.951Z,100942.11
2018-05-01T19:56:06.382Z,100942.41
2018-05-01T19:58:35.273Z,100948.45
2018-05-01T20:01:04.854Z,100943.95
2018-05-01T20:03:34.379Z,100952.98
2018-05-01T20:06:03.536Z,100951.03
2018-05-01T20:08:32.219Z,100950.02
2018-05-01T20:11:00.949Z,100949.52
2018-05-01T20:13:33.444Z,100956.06
2018-05-01T20:16:02.345Z,100957.26
2018-05-01T20:18:31.226Z,100953.31
2018-05-01T20:21:00.654Z,100962.80
2018-05-01T20:23:29.752Z,100957.81
2018-05-01T20:25:59.095Z,100961.52
2018-05-01T20:28:28.662Z,100959.98
2018-05-01T20:30:57.858Z,100963.34
2018-05-01T20:33:26.624Z,100965.70
2018-05-01T20:35:55.114Z,100962.23
2018-05-01T20:38:24.449Z,100963.67
2018-05-01T20:40:53.393Z,100962.43
2018-05-01T20:43:22.232Z,100973.27
2018-05-01T20:45:50.483Z,100968.14
2018-05-01T20:48:19.263Z,100973.06
2018-05-01T20:50:50.332Z,100971.22
2018-05-01T20:53:18.561Z,100976.23
2018-05-01T20:55:47.219Z,100974.60
2018-05-01T20:58:15.425Z,100982.48
2018-05-01T21:00:43.635Z,100983.58
2018-05-01T21:03:12.258Z,100985.48
2018-05-01T21:05:40.631Z,100987.83
2018-05-01T21:08:09.402Z,100984.06
2018-05-01T21:10:38.294Z,100983.20
2018-05-01T21:13:06.566Z,100986.20
2018-05-01T21:15:34.764Z,100988.41
2018-05-01T21:18:03.553Z,100982.37
2018-05-01T21:20:32.256Z,100979.89
2018-05-01T21:23:00.472Z,100980.47
2018-05-01T21:25:28.719Z,100979.44
2018-05-01T21:27:57.407Z,100977.67
2018-05-01T21:30:25.629Z,100977.75
2018-05-01T21:32:53.843Z,100979.23
2018-05-01T21:35:22.499Z,100975.98
2018-05-01T21:37:50.713Z,100971.88
2018-05-01T21:40:18.933Z,100983.55
2018-05-01T21:42:47.639Z,100981.05
2018-05-01T21:45:15.859Z,100988.44
2018-05-01T21:47:44.081Z,100986.29
2018-05-01T21:50:12.767Z,100989.14
2018-05-01T21:52:41.028Z,100984.94
2018-05-01T21:55:09.227Z,100992.51
2018-05-01T21:57:37.953Z,100990.37
2018-05-01T22:00:06.153Z,100992.84
2018-05-01T22:02:35.005Z,100992.23
2018-05-01T22:05:03.538Z,100992.87
2018-05-01T22:07:31.805Z,100996.02
2018-05-01T22:10:00.090Z,100995.70
2018-05-01T22:12:28.616Z,100995.72
2018-05-01T22:14:56.873Z,100994.59
2018-05-01T22:17:25.181Z,100992.59
2018-05-01T22:19:53.825Z,100993.61
2018-05-01T22:22:22.047Z,100993.23
2018-05-01T22:24:50.268Z,100997.88
2018-05-01T22:27:18.864Z,101000.52
2018-05-01T22:29:47.125Z,100995.75
2018-05-01T22:32:15.377Z,101005.50
2018-05-01T22:34:43.948Z,100999.97
2018-05-01T22:37:12.160Z,101002.75
2018-05-01T22:39:40.485Z,101004.00
2018-05-01T22:42:09.205Z,101006.13
2018-05-01T22:44:37.472Z,101001.30
2018-05-01T22:47:05.749Z,100997.97
2018-05-01T22:49:34.253Z,100996.73
2018-05-01T22:52:02.466Z,100999.48
2018-05-01T22:54:30.717Z,100997.47
2018-05-01T22:56:59.322Z,100994.97
2018-05-01T22:59:27.549Z,100999.17
2018-05-01T23:01:55.747Z,100992.27
2018-05-01T23:04:24.433Z,100989.27
2018-05-01T23:06:52.668Z,100989.80
2018-05-01T23:09:20.889Z,101002.18
2018-05-01T23:11:49.803Z,101000.15
2018-05-01T23:14:18.020Z,101003.66
2018-05-01T23:16:46.298Z,101005.11
2018-05-01T23:19:14.882Z,101001.84
2018-05-01T23:21:43.126Z,101002.80
2018-05-01T23:24:11.352Z,101003.74
2018-05-01T23:26:40.146Z,101008.81
2018-05-01T23:29:08.365Z,101004.17
2018-05-01T23:31:36.563Z,101007.47
2018-05-01T23:34:05.106Z,101003.14
2018-05-01T23:36:33.395Z,101001.49
2018-05-01T23:39:01.594Z,101003.82
2018-05-01T23:41:30.261Z,101005.30
2018-05-01T23:43:58.530Z,100999.66
2018-05-01T23:46:26.763Z,100996.66
2018-05-01T23:48:55.587Z,101002.09
2018-05-01T23:51:24.266Z,100991.41
2018-05-01T23:53:52.445Z,100988.83
2018-05-01T23:56:20.624Z,100990.09
2018-05-01T23:58:49.419Z,100990.97
